sensor_id;sensor_type;location;lat;lon;timestamp;P1;durP1;ratioP1;P2;durP2;ratioP2
25952;SDS011;13750;50.804;8.764;2022-07-23T00:01:18;11.70;;;8.18;;
25952;SDS011;13750;50.804;8.764;2022-07-23T00:03:44;11.37;;;10.17;;
25952;SDS011;13750;50.804;8.764;2022-07-23T00:06:10;9.33;;;7.87;;
25952;SDS011;13750;50.804;8.764;2022-07-23T00:08:35;7.25;;;6.50;;
25952;SDS011;13750;50.804;8.764;2022-07-23T00:11:01;7.57;;;6.77;;
25952;SDS011;13750;50.804;8.764;2022-07-23T00:13:27;6.53;;;5.90;;
25952;SDS011;13750;50.804;8.764;2022-07-23T00:15:56;10.13;;;9.10;;
25952;SDS011;13750;50.804;8.764;2022-07-23T00:18:21;7.77;;;6.97;;
25952;SDS011;13750;50.804;8.764;2022-07-23T00:20:47;7.23;;;6.53;;
25952;SDS011;13750;50.804;8.764;2022-07-23T00:23:13;7.47;;;6.43;;
25952;SDS011;13750;50.804;8.764;2022-07-23T00:25:39;6.93;;;6.13;;
25952;SDS011;13750;50.804;8.764;2022-07-23T00:28:05;9.70;;;7.70;;
25952;SDS011;13750;50.804;8.764;2022-07-23T00:30:31;8.50;;;6.85;;
25952;SDS011;13750;50.804;8.764;2022-07-23T00:32:58;8.93;;;7.85;;
25952;SDS011;13750;50.804;8.764;2022-07-23T00:35:27;16.83;;;12.23;;
25952;SDS011;13750;50.804;8.764;2022-07-23T00:37:54;13.40;;;11.57;;
25952;SDS011;13750;50.804;8.764;2022-07-23T00:40:21;13.00;;;10.80;;
25952;SDS011;13750;50.804;8.764;2022-07-23T00:42:46;11.88;;;10.68;;
25952;SDS011;13750;50.804;8.764;2022-07-23T00:45:12;10.33;;;9.07;;
25952;SDS011;13750;50.804;8.764;2022-07-23T00:47:38;12.23;;;9.53;;
25952;SDS011;13750;50.804;8.764;2022-07-23T00:50:04;9.57;;;8.60;;
25952;SDS011;13750;50.804;8.764;2022-07-23T00:52:31;7.15;;;6.47;;
25952;SDS011;13750;50.804;8.764;2022-07-23T00:54:58;9.75;;;8.18;;
25952;SDS011;13750;50.804;8.764;2022-07-23T00:57:24;9.50;;;8.50;;
25952;SDS011;13750;50.804;8.764;2022-07-23T00:59:51;9.20;;;8.23;;
25952;SDS011;13750;50.804;8.764;2022-07-23T01:02:16;12.33;;;10.30;;
25952;SDS011;13750;50.804;8.764;2022-07-23T01:04:42;11.13;;;9.00;;
25952;SDS011;13750;50.804;8.764;2022-07-23T01:07:08;11.00;;;8.13;;
25952;SDS011;13750;50.804;8.764;2022-07-23T01:09:33;8.38;;;7.47;;
25952;SDS011;13750;50.804;8.764;2022-07-23T01:11:59;7.83;;;6.90;;
25952;SDS011;13750;50.804;8.764;2022-07-23T01:14:25;13.70;;;11.23;;
25952;SDS011;13750;50.804;8.764;2022-07-23T01:16:51;11.57;;;8.93;;
25952;SDS011;13750;50.804;8.764;2022-07-23T01:19:17;12.20;;;10.83;;
25952;SDS011;13750;50.804;8.764;2022-07-23T01:21:47;15.52;;;12.57;;
25952;SDS011;13750;50.804;8.764;2022-07-23T01:24:14;15.02;;;11.93;;
25952;SDS011;13750;50.804;8.764;2022-07-23T01:26:42;12.18;;;10.38;;
25952;SDS011;13750;50.804;8.764;2022-07-23T01:29:09;13.30;;;10.80;;
25952;SDS011;13750;50.804;8.764;2022-07-23T01:31:35;11.32;;;9.57;;
25952;SDS011;13750;50.804;8.764;2022-07-23T01:34:01;8.07;;;7.07;;
25952;SDS011;13750;50.804;8.764;2022-07-23T01:36:27;10.45;;;8.80;;
25952;SDS011;13750;50.804;8.764;2022-07-23T01:38:53;9.97;;;8.97;;
25952;SDS011;13750;50.804;8.764;2022-07-23T01:41:21;13.25;;;10.60;;
25952;SDS011;13750;50.804;8.764;2022-07-23T01:43:47;12.13;;;10.60;;
25952;SDS011;13750;50.804;8.764;2022-07-23T01:46:12;12.20;;;10.27;;
25952;SDS011;13750;50.804;8.764;2022-07-23T01:48:38;10.57;;;8.33;;
25952;SDS011;13750;50.804;8.764;2022-07-23T01:51:03;11.77;;;10.10;;
25952;SDS011;13750;50.804;8.764;2022-07-23T01:53:29;9.70;;;8.20;;
25952;SDS011;13750;50.804;8.764;2022-07-23T01:55:56;12.35;;;10.30;;
25952;SDS011;13750;50.804;8.764;2022-07-23T01:58:23;14.30;;;12.45;;
25952;SDS011;13750;50.804;8.764;2022-07-23T02:00:49;16.00;;;12.05;;
25952;SDS011;13750;50.804;8.764;2022-07-23T02:03:14;13.13;;;11.07;;
25952;SDS011;13750;50.804;8.764;2022-07-23T02:05:40;14.73;;;12.47;;
25952;SDS011;13750;50.804;8.764;2022-07-23T02:08:06;10.40;;;8.37;;
25952;SDS011;13750;50.804;8.764;2022-07-23T02:10:31;8.47;;;7.50;;
25952;SDS011;13750;50.804;8.764;2022-07-23T02:12:57;9.00;;;8.07;;
25952;SDS011;13750;50.804;8.764;2022-07-23T02:15:22;8.20;;;6.47;;
25952;SDS011;13750;50.804;8.764;2022-07-23T02:17:48;9.30;;;7.63;;
25952;SDS011;13750;50.804;8.764;2022-07-23T02:20:14;6.13;;;5.57;;
25952;SDS011;13750;50.804;8.764;2022-07-23T02:22:39;10.67;;;8.60;;
25952;SDS011;13750;50.804;8.764;2022-07-23T02:25:06;7.30;;;6.60;;
25952;SDS011;13750;50.804;8.764;2022-07-23T02:27:33;12.13;;;9.57;;
25952;SDS011;13750;50.804;8.764;2022-07-23T02:29:59;9.27;;;8.10;;
25952;SDS011;13750;50.804;8.764;2022-07-23T02:32:25;8.23;;;7.03;;
25952;SDS011;13750;50.804;8.764;2022-07-23T02:34:51;7.82;;;7.03;;
25952;SDS011;13750;50.804;8.764;2022-07-23T02:37:16;10.53;;;8.60;;
25952;SDS011;13750;50.804;8.764;2022-07-23T02:39:43;9.53;;;7.63;;
25952;SDS011;13750;50.804;8.764;2022-07-23T02:42:08;7.70;;;6.90;;
25952;SDS011;13750;50.804;8.764;2022-07-23T02:44:34;9.30;;;8.00;;
25952;SDS011;13750;50.804;8.764;2022-07-23T02:47:00;7.43;;;6.63;;
25952;SDS011;13750;50.804;8.764;2022-07-23T02:49:26;9.73;;;8.10;;
25952;SDS011;13750;50.804;8.764;2022-07-23T02:51:52;9.00;;;8.10;;
25952;SDS011;13750;50.804;8.764;2022-07-23T02:54:17;7.67;;;6.60;;
25952;SDS011;13750;50.804;8.764;2022-07-23T02:56:43;6.22;;;5.50;;
25952;SDS011;13750;50.804;8.764;2022-07-23T02:59:09;5.77;;;5.17;;
25952;SDS011;13750;50.804;8.764;2022-07-23T03:01:35;5.35;;;4.22;;
25952;SDS011;13750;50.804;8.764;2022-07-23T03:04:01;12.27;;;10.07;;
25952;SDS011;13750;50.804;8.764;2022-07-23T03:06:27;8.63;;;7.77;;
25952;SDS011;13750;50.804;8.764;2022-07-23T03:08:52;7.57;;;6.73;;
25952;SDS011;13750;50.804;8.764;2022-07-23T03:11:18;7.77;;;6.17;;
25952;SDS011;13750;50.804;8.764;2022-07-23T03:13:44;7.22;;;6.28;;
25952;SDS011;13750;50.804;8.764;2022-07-23T03:16:10;6.43;;;5.33;;
25952;SDS011;13750;50.804;8.764;2022-07-23T03:18:36;6.23;;;5.63;;
25952;SDS011;13750;50.804;8.764;2022-07-23T03:21:02;5.68;;;4.75;;
25952;SDS011;13750;50.804;8.764;2022-07-23T03:23:27;10.27;;;8.87;;
25952;SDS011;13750;50.804;8.764;2022-07-23T03:25:53;9.10;;;8.03;;
25952;SDS011;13750;50.804;8.764;2022-07-23T03:28:19;8.23;;;6.83;;
25952;SDS011;13750;50.804;8.764;2022-07-23T03:30:45;8.93;;;8.03;;
25952;SDS011;13750;50.804;8.764;2022-07-23T03:33:18;8.43;;;7.38;;
25952;SDS011;13750;50.804;8.764;2022-07-23T03:35:45;7.30;;;6.57;;
25952;SDS011;13750;50.804;8.764;2022-07-23T03:38:11;6.32;;;5.40;;
25952;SDS011;13750;50.804;8.764;2022-07-23T03:40:37;5.43;;;4.70;;
25952;SDS011;13750;50.804;8.764;2022-07-23T03:43:03;5.43;;;4.93;;
25952;SDS011;13750;50.804;8.764;2022-07-23T03:45:29;4.87;;;4.37;;
25952;SDS011;13750;50.804;8.764;2022-07-23T03:47:55;4.30;;;3.88;;
25952;SDS011;13750;50.804;8.764;2022-07-23T03:50:21;6.17;;;4.10;;
25952;SDS011;13750;50.804;8.764;2022-07-23T03:52:47;4.63;;;4.10;;
25952;SDS011;13750;50.804;8.764;2022-07-23T03:55:13;9.38;;;7.75;;
25952;SDS011;13750;50.804;8.764;2022-07-23T03:57:38;8.90;;;6.70;;
25952;SDS011;13750;50.804;8.764;2022-07-23T04:00:05;6.63;;;5.93;;
25952;SDS011;13750;50.804;8.764;2022-07-23T04:02:33;6.43;;;5.50;;
25952;SDS011;13750;50.804;8.764;2022-07-23T04:04:58;6.63;;;5.57;;
25952;SDS011;13750;50.804;8.764;2022-07-23T04:07:25;4.43;;;3.92;;
25952;SDS011;13750;50.804;8.764;2022-07-23T04:09:51;5.72;;;5.13;;
25952;SDS011;13750;50.804;8.764;2022-07-23T04:12:17;5.03;;;3.77;;
25952;SDS011;13750;50.804;8.764;2022-07-23T04:14:43;4.85;;;4.13;;
25952;SDS011;13750;50.804;8.764;2022-07-23T04:17:09;13.00;;;10.23;;
25952;SDS011;13750;50.804;8.764;2022-07-23T04:19:35;9.50;;;8.23;;
25952;SDS011;13750;50.804;8.764;2022-07-23T04:22:05;10.63;;;9.00;;
25952;SDS011;13750;50.804;8.764;2022-07-23T04:24:32;10.13;;;9.07;;
25952;SDS011;13750;50.804;8.764;2022-07-23T04:26:57;10.03;;;8.33;;
25952;SDS011;13750;50.804;8.764;2022-07-23T04:29:23;9.40;;;7.60;;
25952;SDS011;13750;50.804;8.764;2022-07-23T04:31:49;6.37;;;5.77;;
25952;SDS011;13750;50.804;8.764;2022-07-23T04:34:15;6.33;;;5.73;;
25952;SDS011;13750;50.804;8.764;2022-07-23T04:36:40;7.80;;;7.03;;
25952;SDS011;13750;50.804;8.764;2022-07-23T04:39:06;8.27;;;6.97;;
25952;SDS011;13750;50.804;8.764;2022-07-23T04:41:32;7.27;;;6.57;;
25952;SDS011;13750;50.804;8.764;2022-07-23T04:43:59;7.18;;;6.07;;
25952;SDS011;13750;50.804;8.764;2022-07-23T04:46:25;9.13;;;8.00;;
25952;SDS011;13750;50.804;8.764;2022-07-23T04:48:51;7.43;;;6.73;;
25952;SDS011;13750;50.804;8.764;2022-07-23T04:51:16;12.00;;;10.40;;
25952;SDS011;13750;50.804;8.764;2022-07-23T04:53:42;10.87;;;8.47;;
25952;SDS011;13750;50.804;8.764;2022-07-23T04:56:08;10.30;;;8.30;;
25952;SDS011;13750;50.804;8.764;2022-07-23T04:58:34;10.80;;;8.27;;
25952;SDS011;13750;50.804;8.764;2022-07-23T05:00:59;10.40;;;8.27;;
25952;SDS011;13750;50.804;8.764;2022-07-23T05:03:25;6.47;;;5.67;;
25952;SDS011;13750;50.804;8.764;2022-07-23T05:05:51;7.77;;;6.13;;
25952;SDS011;13750;50.804;8.764;2022-07-23T05:08:17;6.93;;;5.77;;
25952;SDS011;13750;50.804;8.764;2022-07-23T05:10:42;6.13;;;5.53;;
25952;SDS011;13750;50.804;8.764;2022-07-23T05:13:08;5.90;;;5.30;;
25952;SDS011;13750;50.804;8.764;2022-07-23T05:15:34;4.80;;;4.33;;
25952;SDS011;13750;50.804;8.764;2022-07-23T05:17:59;8.57;;;7.63;;
25952;SDS011;13750;50.804;8.764;2022-07-23T05:20:25;9.57;;;7.73;;
25952;SDS011;13750;50.804;8.764;2022-07-23T05:22:51;8.20;;;7.40;;
25952;SDS011;13750;50.804;8.764;2022-07-23T05:25:16;7.80;;;6.97;;
25952;SDS011;13750;50.804;8.764;2022-07-23T05:27:42;9.53;;;7.43;;
25952;SDS011;13750;50.804;8.764;2022-07-23T05:30:08;8.53;;;7.30;;
25952;SDS011;13750;50.804;8.764;2022-07-23T05:32:34;10.02;;;8.50;;
25952;SDS011;13750;50.804;8.764;2022-07-23T05:35:01;9.68;;;8.23;;
25952;SDS011;13750;50.804;8.764;2022-07-23T05:39:53;10.35;;;8.52;;
25952;SDS011;13750;50.804;8.764;2022-07-23T05:42:19;8.53;;;7.50;;
25952;SDS011;13750;50.804;8.764;2022-07-23T05:44:45;9.17;;;7.77;;
25952;SDS011;13750;50.804;8.764;2022-07-23T05:47:10;7.83;;;7.03;;
25952;SDS011;13750;50.804;8.764;2022-07-23T05:49:37;10.57;;;8.03;;
25952;SDS011;13750;50.804;8.764;2022-07-23T05:52:06;8.95;;;7.63;;
25952;SDS011;13750;50.804;8.764;2022-07-23T05:54:35;7.07;;;6.38;;
25952;SDS011;13750;50.804;8.764;2022-07-23T05:57:01;9.05;;;7.65;;
25952;SDS011;13750;50.804;8.764;2022-07-23T05:59:27;9.32;;;7.05;;
25952;SDS011;13750;50.804;8.764;2022-07-23T06:01:53;7.23;;;6.53;;
25952;SDS011;13750;50.804;8.764;2022-07-23T06:04:19;7.20;;;6.17;;
25952;SDS011;13750;50.804;8.764;2022-07-23T06:06:44;5.80;;;4.90;;
25952;SDS011;13750;50.804;8.764;2022-07-23T06:09:10;5.70;;;5.03;;
25952;SDS011;13750;50.804;8.764;2022-07-23T06:11:38;8.65;;;5.85;;
25952;SDS011;13750;50.804;8.764;2022-07-23T06:14:04;6.30;;;5.67;;
25952;SDS011;13750;50.804;8.764;2022-07-23T06:16:30;8.57;;;6.05;;
25952;SDS011;13750;50.804;8.764;2022-07-23T06:18:56;6.53;;;5.90;;
25952;SDS011;13750;50.804;8.764;2022-07-23T06:21:21;7.17;;;5.80;;
25952;SDS011;13750;50.804;8.764;2022-07-23T06:23:47;9.40;;;7.17;;
25952;SDS011;13750;50.804;8.764;2022-07-23T06:26:13;6.40;;;5.60;;
25952;SDS011;13750;50.804;8.764;2022-07-23T06:28:38;5.20;;;4.67;;
25952;SDS011;13750;50.804;8.764;2022-07-23T06:31:04;5.47;;;4.23;;
25952;SDS011;13750;50.804;8.764;2022-07-23T06:33:29;9.27;;;7.40;;
25952;SDS011;13750;50.804;8.764;2022-07-23T06:35:55;6.90;;;6.20;;
25952;SDS011;13750;50.804;8.764;2022-07-23T06:38:21;7.17;;;5.13;;
25952;SDS011;13750;50.804;8.764;2022-07-23T06:40:46;9.33;;;6.53;;
25952;SDS011;13750;50.804;8.764;2022-07-23T06:43:12;8.27;;;5.93;;
25952;SDS011;13750;50.804;8.764;2022-07-23T06:45:37;5.40;;;4.63;;
25952;SDS011;13750;50.804;8.764;2022-07-23T06:48:03;5.93;;;5.03;;
25952;SDS011;13750;50.804;8.764;2022-07-23T06:50:29;6.10;;;4.83;;
25952;SDS011;13750;50.804;8.764;2022-07-23T06:52:54;6.80;;;5.57;;
25952;SDS011;13750;50.804;8.764;2022-07-23T06:55:21;4.28;;;3.88;;
25952;SDS011;13750;50.804;8.764;2022-07-23T06:57:46;4.63;;;3.70;;
25952;SDS011;13750;50.804;8.764;2022-07-23T07:00:12;5.70;;;4.93;;
25952;SDS011;13750;50.804;8.764;2022-07-23T07:02:38;4.47;;;3.60;;
25952;SDS011;13750;50.804;8.764;2022-07-23T07:05:04;8.17;;;6.20;;
25952;SDS011;13750;50.804;8.764;2022-07-23T07:07:30;8.13;;;6.18;;
25952;SDS011;13750;50.804;8.764;2022-07-23T07:09:55;6.37;;;5.77;;
25952;SDS011;13750;50.804;8.764;2022-07-23T07:12:21;5.87;;;4.77;;
25952;SDS011;13750;50.804;8.764;2022-07-23T07:14:46;4.03;;;3.63;;
25952;SDS011;13750;50.804;8.764;2022-07-23T07:17:12;3.80;;;3.50;;
25952;SDS011;13750;50.804;8.764;2022-07-23T07:19:37;3.83;;;3.43;;
25952;SDS011;13750;50.804;8.764;2022-07-23T07:22:03;3.73;;;2.90;;
25952;SDS011;13750;50.804;8.764;2022-07-23T07:24:29;3.20;;;2.90;;
25952;SDS011;13750;50.804;8.764;2022-07-23T07:26:54;2.93;;;2.67;;
25952;SDS011;13750;50.804;8.764;2022-07-23T07:29:20;2.70;;;2.50;;
25952;SDS011;13750;50.804;8.764;2022-07-23T07:31:45;2.00;;;1.70;;
25952;SDS011;13750;50.804;8.764;2022-07-23T07:34:11;1.83;;;1.70;;
25952;SDS011;13750;50.804;8.764;2022-07-23T07:36:37;2.97;;;2.00;;
25952;SDS011;13750;50.804;8.764;2022-07-23T07:39:03;2.07;;;1.60;;
25952;SDS011;13750;50.804;8.764;2022-07-23T07:41:30;2.00;;;1.60;;
25952;SDS011;13750;50.804;8.764;2022-07-23T07:43:56;2.05;;;1.85;;
25952;SDS011;13750;50.804;8.764;2022-07-23T07:46:21;1.93;;;1.73;;
25952;SDS011;13750;50.804;8.764;2022-07-23T07:48:49;2.00;;;1.77;;
25952;SDS011;13750;50.804;8.764;2022-07-23T07:51:15;1.52;;;1.33;;
25952;SDS011;13750;50.804;8.764;2022-07-23T07:53:40;2.00;;;1.70;;
25952;SDS011;13750;50.804;8.764;2022-07-23T07:56:06;1.97;;;1.77;;
25952;SDS011;13750;50.804;8.764;2022-07-23T07:58:32;1.53;;;1.33;;
25952;SDS011;13750;50.804;8.764;2022-07-23T08:00:58;1.70;;;1.50;;
25952;SDS011;13750;50.804;8.764;2022-07-23T08:03:23;1.57;;;1.40;;
25952;SDS011;13750;50.804;8.764;2022-07-23T08:05:49;4.77;;;3.73;;
25952;SDS011;13750;50.804;8.764;2022-07-23T08:08:15;4.50;;;3.90;;
25952;SDS011;13750;50.804;8.764;2022-07-23T08:10:41;3.77;;;2.97;;
25952;SDS011;13750;50.804;8.764;2022-07-23T08:13:08;4.18;;;3.30;;
25952;SDS011;13750;50.804;8.764;2022-07-23T08:15:40;3.50;;;3.20;;
25952;SDS011;13750;50.804;8.764;2022-07-23T08:18:06;3.43;;;3.13;;
25952;SDS011;13750;50.804;8.764;2022-07-23T08:20:32;5.47;;;3.87;;
25952;SDS011;13750;50.804;8.764;2022-07-23T08:23:07;3.83;;;3.47;;
25952;SDS011;13750;50.804;8.764;2022-07-23T08:25:38;3.72;;;3.42;;
25952;SDS011;13750;50.804;8.764;2022-07-23T08:28:06;3.63;;;3.20;;
25952;SDS011;13750;50.804;8.764;2022-07-23T08:30:36;3.00;;;2.65;;
25952;SDS011;13750;50.804;8.764;2022-07-23T08:33:04;2.67;;;2.47;;
25952;SDS011;13750;50.804;8.764;2022-07-23T08:38:00;2.78;;;2.30;;
25952;SDS011;13750;50.804;8.764;2022-07-23T08:40:33;2.50;;;2.30;;
25952;SDS011;13750;50.804;8.764;2022-07-23T08:43:04;2.17;;;1.98;;
25952;SDS011;13750;50.804;8.764;2022-07-23T08:45:35;1.83;;;1.73;;
25952;SDS011;13750;50.804;8.764;2022-07-23T08:48:02;2.05;;;1.80;;
25952;SDS011;13750;50.804;8.764;2022-07-23T08:50:30;2.25;;;1.90;;
25952;SDS011;13750;50.804;8.764;2022-07-23T08:52:57;2.50;;;2.30;;
25952;SDS011;13750;50.804;8.764;2022-07-23T08:55:25;1.92;;;1.77;;
25952;SDS011;13750;50.804;8.764;2022-07-23T08:57:51;2.33;;;1.93;;
25952;SDS011;13750;50.804;8.764;2022-07-23T09:00:18;2.13;;;1.90;;
25952;SDS011;13750;50.804;8.764;2022-07-23T09:02:45;6.43;;;4.32;;
25952;SDS011;13750;50.804;8.764;2022-07-23T09:05:12;4.53;;;4.13;;
25952;SDS011;13750;50.804;8.764;2022-07-23T09:08:03;3.90;;;3.38;;
25952;SDS011;13750;50.804;8.764;2022-07-23T09:10:48;5.32;;;4.75;;
25952;SDS011;13750;50.804;8.764;2022-07-23T09:15:52;4.70;;;4.25;;
25952;SDS011;13750;50.804;8.764;2022-07-23T09:18:19;6.30;;;4.82;;
25952;SDS011;13750;50.804;8.764;2022-07-23T09:21:04;7.20;;;4.20;;
25952;SDS011;13750;50.804;8.764;2022-07-23T09:23:48;3.75;;;3.45;;
25952;SDS011;13750;50.804;8.764;2022-07-23T09:28:58;3.30;;;2.80;;
25952;SDS011;13750;50.804;8.764;2022-07-23T09:31:24;3.17;;;2.88;;
25952;SDS011;13750;50.804;8.764;2022-07-23T09:33:50;2.50;;;2.30;;
25952;SDS011;13750;50.804;8.764;2022-07-23T09:36:26;2.45;;;2.17;;
25952;SDS011;13750;50.804;8.764;2022-07-23T09:38:54;2.42;;;2.20;;
25952;SDS011;13750;50.804;8.764;2022-07-23T09:41:19;2.40;;;2.20;;
25952;SDS011;13750;50.804;8.764;2022-07-23T09:43:45;2.33;;;2.00;;
25952;SDS011;13750;50.804;8.764;2022-07-23T09:46:21;2.20;;;1.87;;
25952;SDS011;13750;50.804;8.764;2022-07-23T09:48:50;2.00;;;1.80;;
25952;SDS011;13750;50.804;8.764;2022-07-23T09:51:16;2.35;;;1.90;;
25952;SDS011;13750;50.804;8.764;2022-07-23T09:53:58;2.28;;;2.08;;
25952;SDS011;13750;50.804;8.764;2022-07-23T09:56:23;2.20;;;2.00;;
25952;SDS011;13750;50.804;8.764;2022-07-23T09:58:52;1.90;;;1.75;;
25952;SDS011;13750;50.804;8.764;2022-07-23T10:01:27;2.15;;;1.95;;
25952;SDS011;13750;50.804;8.764;2022-07-23T10:03:54;4.72;;;2.95;;
25952;SDS011;13750;50.804;8.764;2022-07-23T10:06:20;2.33;;;1.85;;
25952;SDS011;13750;50.804;8.764;2022-07-23T10:08:46;1.90;;;1.70;;
25952;SDS011;13750;50.804;8.764;2022-07-23T10:11:14;1.83;;;1.73;;
25952;SDS011;13750;50.804;8.764;2022-07-23T10:13:42;1.70;;;1.45;;
25952;SDS011;13750;50.804;8.764;2022-07-23T10:16:20;1.48;;;1.38;;
25952;SDS011;13750;50.804;8.764;2022-07-23T10:18:47;1.80;;;1.67;;
25952;SDS011;13750;50.804;8.764;2022-07-23T10:21:16;2.17;;;1.85;;
25952;SDS011;13750;50.804;8.764;2022-07-23T10:23:47;1.42;;;1.33;;
25952;SDS011;13750;50.804;8.764;2022-07-23T10:26:40;2.55;;;1.80;;
25952;SDS011;13750;50.804;8.764;2022-07-23T10:29:31;3.50;;;2.63;;
25952;SDS011;13750;50.804;8.764;2022-07-23T10:40:08;3.85;;;3.55;;
25952;SDS011;13750;50.804;8.764;2022-07-23T10:42:35;3.60;;;3.30;;
25952;SDS011;13750;50.804;8.764;2022-07-23T10:45:02;3.33;;;3.03;;
25952;SDS011;13750;50.804;8.764;2022-07-23T10:48:21;2.60;;;2.25;;
25952;SDS011;13750;50.804;8.764;2022-07-23T10:59:19;2.22;;;2.03;;
25952;SDS011;13750;50.804;8.764;2022-07-23T11:01:45;2.53;;;2.33;;
25952;SDS011;13750;50.804;8.764;2022-07-23T11:04:11;1.73;;;1.63;;
25952;SDS011;13750;50.804;8.764;2022-07-23T11:18:18;2.13;;;1.92;;
25952;SDS011;13750;50.804;8.764;2022-07-23T11:20:22;2.03;;;1.85;;
25952;SDS011;13750;50.804;8.764;2022-07-23T11:22:56;1.77;;;1.67;;
25952;SDS011;13750;50.804;8.764;2022-07-23T11:27:55;3.40;;;3.10;;
25952;SDS011;13750;50.804;8.764;2022-07-23T11:30:39;4.43;;;3.83;;
25952;SDS011;13750;50.804;8.764;2022-07-23T11:35:32;4.73;;;3.70;;
25952;SDS011;13750;50.804;8.764;2022-07-23T11:38:06;3.70;;;3.40;;
25952;SDS011;13750;50.804;8.764;2022-07-23T11:40:35;3.53;;;3.22;;
25952;SDS011;13750;50.804;8.764;2022-07-23T11:43:03;3.63;;;2.87;;
25952;SDS011;13750;50.804;8.764;2022-07-23T11:48:04;4.15;;;3.20;;
25952;SDS011;13750;50.804;8.764;2022-07-23T11:50:31;5.22;;;4.35;;
25952;SDS011;13750;50.804;8.764;2022-07-23T11:52:57;4.00;;;3.42;;
25952;SDS011;13750;50.804;8.764;2022-07-23T11:55:23;3.53;;;3.22;;
25952;SDS011;13750;50.804;8.764;2022-07-23T11:57:50;5.93;;;4.70;;
25952;SDS011;13750;50.804;8.764;2022-07-23T12:00:19;4.63;;;4.20;;
25952;SDS011;13750;50.804;8.764;2022-07-23T12:02:48;5.00;;;4.35;;
25952;SDS011;13750;50.804;8.764;2022-07-23T12:05:16;4.63;;;4.22;;
25952;SDS011;13750;50.804;8.764;2022-07-23T12:07:47;5.32;;;4.82;;
25952;SDS011;13750;50.804;8.764;2022-07-23T12:10:30;4.95;;;4.55;;
25952;SDS011;13750;50.804;8.764;2022-07-23T12:15:49;3.17;;;2.88;;
25952;SDS011;13750;50.804;8.764;2022-07-23T12:18:18;3.08;;;2.78;;
25952;SDS011;13750;50.804;8.764;2022-07-23T12:20:47;2.80;;;2.60;;
25952;SDS011;13750;50.804;8.764;2022-07-23T12:23:17;2.42;;;2.22;;
25952;SDS011;13750;50.804;8.764;2022-07-23T12:25:44;2.15;;;1.95;;
25952;SDS011;13750;50.804;8.764;2022-07-23T12:28:12;2.45;;;2.25;;
25952;SDS011;13750;50.804;8.764;2022-07-23T12:30:46;1.95;;;1.83;;
25952;SDS011;13750;50.804;8.764;2022-07-23T12:33:25;2.20;;;2.00;;
25952;SDS011;13750;50.804;8.764;2022-07-23T12:35:52;1.58;;;1.48;;
25952;SDS011;13750;50.804;8.764;2022-07-23T12:38:23;1.30;;;1.20;;
25952;SDS011;13750;50.804;8.764;2022-07-23T12:40:51;1.75;;;1.50;;
25952;SDS011;13750;50.804;8.764;2022-07-23T12:43:19;1.60;;;1.50;;
25952;SDS011;13750;50.804;8.764;2022-07-23T12:48:35;1.45;;;1.35;;
25952;SDS011;13750;50.804;8.764;2022-07-23T12:51:04;1.48;;;1.38;;
25952;SDS011;13750;50.804;8.764;2022-07-23T12:56:11;1.25;;;1.15;;
25952;SDS011;13750;50.804;8.764;2022-07-23T13:01:09;1.70;;;1.60;;
25952;SDS011;13750;50.804;8.764;2022-07-23T13:03:39;1.40;;;1.27;;
25952;SDS011;13750;50.804;8.764;2022-07-23T13:06:10;1.63;;;1.52;;
25952;SDS011;13750;50.804;8.764;2022-07-23T13:08:37;1.13;;;1.02;;
25952;SDS011;13750;50.804;8.764;2022-07-23T13:11:05;1.48;;;1.20;;
25952;SDS011;13750;50.804;8.764;2022-07-23T13:13:32;4.07;;;3.67;;
25952;SDS011;13750;50.804;8.764;2022-07-23T13:16:00;3.88;;;3.47;;
25952;SDS011;13750;50.804;8.764;2022-07-23T13:18:26;3.95;;;3.63;;
25952;SDS011;13750;50.804;8.764;2022-07-23T13:20:53;3.17;;;2.63;;
25952;SDS011;13750;50.804;8.764;2022-07-23T13:23:19;3.45;;;3.15;;
25952;SDS011;13750;50.804;8.764;2022-07-23T13:28:12;2.40;;;2.20;;
25952;SDS011;13750;50.804;8.764;2022-07-23T13:30:39;3.25;;;2.40;;
25952;SDS011;13750;50.804;8.764;2022-07-23T13:33:05;2.90;;;2.17;;
25952;SDS011;13750;50.804;8.764;2022-07-23T13:35:31;1.57;;;1.43;;
25952;SDS011;13750;50.804;8.764;2022-07-23T13:37:58;1.83;;;1.60;;
25952;SDS011;13750;50.804;8.764;2022-07-23T13:40:24;1.40;;;1.30;;
25952;SDS011;13750;50.804;8.764;2022-07-23T13:42:50;2.53;;;2.30;;
25952;SDS011;13750;50.804;8.764;2022-07-23T13:45:15;2.47;;;2.10;;
25952;SDS011;13750;50.804;8.764;2022-07-23T13:47:41;2.43;;;2.07;;
25952;SDS011;13750;50.804;8.764;2022-07-23T13:50:07;3.00;;;2.50;;
25952;SDS011;13750;50.804;8.764;2022-07-23T13:52:35;3.67;;;3.10;;
25952;SDS011;13750;50.804;8.764;2022-07-23T13:55:01;3.30;;;2.97;;
25952;SDS011;13750;50.804;8.764;2022-07-23T13:57:29;3.00;;;2.70;;
25952;SDS011;13750;50.804;8.764;2022-07-23T13:59:55;3.33;;;3.03;;
25952;SDS011;13750;50.804;8.764;2022-07-23T14:02:21;3.15;;;2.83;;
25952;SDS011;13750;50.804;8.764;2022-07-23T14:04:47;3.50;;;3.20;;
25952;SDS011;13750;50.804;8.764;2022-07-23T14:07:13;2.63;;;2.42;;
25952;SDS011;13750;50.804;8.764;2022-07-23T14:09:39;2.63;;;2.40;;
25952;SDS011;13750;50.804;8.764;2022-07-23T14:12:05;2.37;;;2.17;;
25952;SDS011;13750;50.804;8.764;2022-07-23T14:14:31;2.97;;;2.63;;
25952;SDS011;13750;50.804;8.764;2022-07-23T14:17:01;2.50;;;2.30;;
25952;SDS011;13750;50.804;8.764;2022-07-23T14:19:27;2.47;;;2.20;;
25952;SDS011;13750;50.804;8.764;2022-07-23T14:21:56;2.00;;;1.80;;
25952;SDS011;13750;50.804;8.764;2022-07-23T14:24:22;1.83;;;1.63;;
25952;SDS011;13750;50.804;8.764;2022-07-23T14:26:48;2.30;;;1.83;;
25952;SDS011;13750;50.804;8.764;2022-07-23T14:29:16;1.70;;;1.60;;
25952;SDS011;13750;50.804;8.764;2022-07-23T14:31:42;2.42;;;1.67;;
25952;SDS011;13750;50.804;8.764;2022-07-23T14:34:08;2.43;;;2.23;;
25952;SDS011;13750;50.804;8.764;2022-07-23T14:36:33;3.10;;;2.80;;
25952;SDS011;13750;50.804;8.764;2022-07-23T14:39:00;3.77;;;3.27;;
25952;SDS011;13750;50.804;8.764;2022-07-23T14:43:51;3.53;;;3.22;;
25952;SDS011;13750;50.804;8.764;2022-07-23T14:46:17;3.27;;;2.77;;
25952;SDS011;13750;50.804;8.764;2022-07-23T14:48:42;4.07;;;3.07;;
25952;SDS011;13750;50.804;8.764;2022-07-23T14:51:08;3.17;;;2.87;;
25952;SDS011;13750;50.804;8.764;2022-07-23T14:53:33;3.60;;;3.30;;
25952;SDS011;13750;50.804;8.764;2022-07-23T14:55:59;3.60;;;3.30;;
25952;SDS011;13750;50.804;8.764;2022-07-23T14:58:25;3.80;;;3.40;;
25952;SDS011;13750;50.804;8.764;2022-07-23T15:00:51;3.47;;;3.08;;
25952;SDS011;13750;50.804;8.764;2022-07-23T15:03:16;3.22;;;2.92;;
25952;SDS011;13750;50.804;8.764;2022-07-23T15:05:42;3.50;;;3.20;;
25952;SDS011;13750;50.804;8.764;2022-07-23T15:08:08;3.40;;;3.10;;
25952;SDS011;13750;50.804;8.764;2022-07-23T15:10:33;3.35;;;3.00;;
25952;SDS011;13750;50.804;8.764;2022-07-23T15:12:59;3.30;;;2.90;;
25952;SDS011;13750;50.804;8.764;2022-07-23T15:15:24;3.20;;;2.90;;
25952;SDS011;13750;50.804;8.764;2022-07-23T15:17:51;2.70;;;2.50;;
25952;SDS011;13750;50.804;8.764;2022-07-23T15:20:17;3.28;;;2.97;;
25952;SDS011;13750;50.804;8.764;2022-07-23T15:22:42;2.97;;;2.77;;
25952;SDS011;13750;50.804;8.764;2022-07-23T15:25:10;2.88;;;2.40;;
25952;SDS011;13750;50.804;8.764;2022-07-23T15:30:02;3.25;;;2.95;;
25952;SDS011;13750;50.804;8.764;2022-07-23T15:32:31;3.38;;;3.08;;
25952;SDS011;13750;50.804;8.764;2022-07-23T15:35:01;5.07;;;3.20;;
25952;SDS011;13750;50.804;8.764;2022-07-23T15:37:33;2.67;;;2.47;;
25952;SDS011;13750;50.804;8.764;2022-07-23T15:40:01;2.90;;;2.60;;
25952;SDS011;13750;50.804;8.764;2022-07-23T15:42:34;2.35;;;2.15;;
25952;SDS011;13750;50.804;8.764;2022-07-23T15:45:05;2.78;;;2.03;;
25952;SDS011;13750;50.804;8.764;2022-07-23T15:47:31;3.00;;;2.13;;
25952;SDS011;13750;50.804;8.764;2022-07-23T15:49:57;2.73;;;2.30;;